createdAt,value
2023-06-16T00:00:12.997Z,101457.16
2023-06-16T00:03:03.067Z,101460.69
2023-06-16T00:05:32.456Z,101459.46
2023-06-16T00:08:02.089Z,101465.59
2023-06-16T00:10:31.425Z,101463.50
2023-06-16T00:12:59.773Z,101462.80
2023-06-16T00:15:27.881Z,101464.56
2023-06-16T00:17:58.079Z,101460.37
2023-06-16T00:20:27.216Z,101462.67
2023-06-16T00:22:56.222Z,101465.49
2023-06-16T00:25:24.733Z,101463.21
2023-06-16T00:27:53.074Z,101462.36
2023-06-16T00:30:21.560Z,101463.79
2023-06-16T00:32:49.902Z,101463.80
2023-06-16T00:35:18.223Z,101464.67
2023-06-16T00:37:46.259Z,101460.48
2023-06-16T00:40:14.436Z,101456.83
2023-06-16T00:42:42.610Z,101457.90
2023-06-16T00:45:11.855Z,101459.15
2023-06-16T00:47:40.114Z,101457.77
2023-06-16T00:50:09.134Z,101457.42
2023-06-16T00:52:38.967Z,101458.52
2023-06-16T00:55:10.163Z,101463.45
2023-06-16T00:57:40.418Z,101461.73
2023-06-16T01:00:12.534Z,101460.54
2023-06-16T01:02:41.377Z,101460.21
2023-06-16T01:05:10.139Z,101460.06
2023-06-16T01:07:53.128Z,101460.59
2023-06-16T01:10:54.363Z,101455.20
2023-06-16T01:13:29.202Z,101460.52
2023-06-16T01:16:03.001Z,101460.38
2023-06-16T01:18:34.082Z,101458.98
2023-06-16T01:21:22.841Z,101461.45
2023-06-16T01:24:09.310Z,101463.60
2023-06-16T01:26:41.491Z,101465.39
2023-06-16T01:29:12.395Z,101464.87
2023-06-16T01:31:42.899Z,101461.36
2023-06-16T01:34:13.414Z,101456.09
2023-06-16T01:36:43.556Z,101454.17
2023-06-16T01:39:15.221Z,101459.27
2023-06-16T01:41:44.733Z,101457.35
2023-06-16T01:44:13.767Z,101450.52
2023-06-16T01:46:43.044Z,101453.51
2023-06-16T01:49:13.117Z,101447.02
2023-06-16T01:51:41.422Z,101449.66
2023-06-16T01:54:09.685Z,101450.35
2023-06-16T01:56:37.799Z,101443.50
2023-06-16T02:02:17.343Z,101448.25
2023-06-16T02:04:49.449Z,101447.36
2023-06-16T02:07:23.245Z,101443.85
2023-06-16T02:09:52.514Z,101442.77
2023-06-16T02:12:20.722Z,101440.48
2023-06-16T02:14:49.426Z,101439.77
2023-06-16T02:17:17.739Z,101439.95
2023-06-16T02:19:46.235Z,101439.61
2023-06-16T02:22:14.248Z,101439.27
2023-06-16T02:24:43.024Z,101438.04
2023-06-16T02:27:11.050Z,101439.09
2023-06-16T02:29:39.090Z,101432.79
2023-06-16T02:32:07.672Z,101433.81
2023-06-16T02:34:35.784Z,101435.75
2023-06-16T02:37:04.291Z,101434.53
2023-06-16T02:39:33.028Z,101435.59
2023-06-16T02:42:01.257Z,101433.84
2023-06-16T02:44:29.323Z,101435.77
2023-06-16T02:46:58.364Z,101431.37
2023-06-16T02:49:27.626Z,101427.16
2023-06-16T02:51:56.363Z,101420.66
2023-06-16T02:54:24.530Z,101420.31
2023-06-16T02:56:52.712Z,101416.45
2023-06-16T02:59:22.047Z,101415.91
2023-06-16T03:01:50.281Z,101415.20
2023-06-16T03:04:28.614Z,101414.84
2023-06-16T03:07:07.367Z,101409.23
2023-06-16T03:09:40.174Z,101411.84
2023-06-16T03:12:10.004Z,101417.94
2023-06-16T03:14:42.797Z,101418.27
2023-06-16T03:17:22.912Z,101417.54
2023-06-16T03:19:51.933Z,101422.94
2023-06-16T03:22:27.215Z,101419.06
2023-06-16T03:24:56.072Z,101421.32
2023-06-16T03:27:24.862Z,101419.73
2023-06-16T03:29:59.047Z,101418.66
2023-06-16T03:32:28.802Z,101420.36
2023-06-16T03:34:57.398Z,101422.61
2023-06-16T03:37:25.568Z,101420.98
2023-06-16T03:39:53.706Z,101426.73
2023-06-16T03:42:22.192Z,101426.67
2023-06-16T03:44:50.629Z,101420.55
2023-06-16T03:47:20.616Z,101421.49
2023-06-16T03:49:48.688Z,101426.38
2023-06-16T03:52:16.921Z,101419.58
2023-06-16T03:54:45.062Z,101418.55
2023-06-16T03:57:14.643Z,101419.30
2023-06-16T03:59:43.288Z,101415.68
2023-06-16T04:02:12.065Z,101412.17
2023-06-16T04:04:46.590Z,101412.80
2023-06-16T04:07:15.228Z,101418.00
2023-06-16T04:09:43.749Z,101411.56
2023-06-16T04:12:12.870Z,101411.64
2023-06-16T04:14:41.844Z,101411.43
2023-06-16T04:17:10.310Z,101414.86
2023-06-16T04:19:39.505Z,101415.11
2023-06-16T04:22:08.110Z,101414.85
2023-06-16T04:24:46.446Z,101403.35
2023-06-16T04:27:14.693Z,101408.36
2023-06-16T04:29:43.479Z,101408.21
2023-06-16T04:32:15.543Z,101404.34
2023-06-16T04:34:46.396Z,101402.13
2023-06-16T04:37:15.783Z,101403.77
2023-06-16T04:39:43.914Z,101404.00
2023-06-16T04:42:14.911Z,101405.09
2023-06-16T04:44:43.314Z,101404.55
2023-06-16T04:47:13.981Z,101404.39
2023-06-16T04:49:42.692Z,101396.23
2023-06-16T04:52:10.916Z,101395.58
2023-06-16T04:54:39.046Z,101393.23
2023-06-16T04:57:09.403Z,101391.17
2023-06-16T04:59:37.537Z,101391.97
2023-06-16T05:02:07.294Z,101393.11
2023-06-16T05:04:35.623Z,101395.21
2023-06-16T05:07:04.964Z,101392.55
2023-06-16T05:09:33.716Z,101392.36
2023-06-16T05:12:02.088Z,101390.77
2023-06-16T05:14:32.753Z,101391.05
2023-06-16T05:17:01.831Z,101389.79
2023-06-16T05:19:31.075Z,101388.58
2023-06-16T05:22:01.200Z,101389.14
2023-06-16T05:24:32.096Z,101390.08
2023-06-16T05:27:01.151Z,101388.65
2023-06-16T05:29:30.457Z,101392.73
2023-06-16T05:31:59.546Z,101391.70
2023-06-16T05:34:27.719Z,101394.81
2023-06-16T05:36:55.977Z,101397.29
2023-06-16T05:39:24.631Z,101394.69
2023-06-16T05:41:53.777Z,101399.52
2023-06-16T05:44:22.847Z,101398.30
2023-06-16T05:46:51.771Z,101398.58
2023-06-16T05:49:20.344Z,101400.77
2023-06-16T05:51:48.468Z,101401.91
2023-06-16T05:54:16.768Z,101403.83
2023-06-16T05:56:44.866Z,101403.73
2023-06-16T05:59:12.926Z,101403.73
2023-06-16T06:01:41.096Z,101407.52
2023-06-16T06:04:12.302Z,101409.58
2023-06-16T06:06:40.683Z,101406.89
2023-06-16T06:09:08.838Z,101407.83
2023-06-16T06:11:37.734Z,101409.48
2023-06-16T06:14:05.942Z,101411.42
2023-06-16T06:16:34.061Z,101418.07
2023-06-16T06:19:02.201Z,101414.54
2023-06-16T06:21:30.225Z,101417.15
2023-06-16T06:23:59.200Z,101419.61
2023-06-16T06:26:27.431Z,101422.85
2023-06-16T06:28:55.796Z,101427.14
2023-06-16T06:31:24.131Z,101431.38
2023-06-16T06:33:52.360Z,101430.98
2023-06-16T06:36:31.212Z,101429.88
2023-06-16T06:39:00.495Z,101430.80
2023-06-16T06:41:29.092Z,101430.00
2023-06-16T06:44:02.263Z,101429.92
2023-06-16T06:46:49.009Z,101433.30
2023-06-16T06:49:17.301Z,101431.48
2023-06-16T06:51:45.520Z,101431.95
2023-06-16T06:54:13.684Z,101433.70
2023-06-16T06:56:41.793Z,101432.02
2023-06-16T06:59:09.925Z,101435.29
2023-06-16T07:01:39.113Z,101434.79
2023-06-16T07:04:07.880Z,101433.48
2023-06-16T07:06:36.924Z,101431.29
2023-06-16T07:09:05.171Z,101430.48
2023-06-16T07:11:35.343Z,101439.92
2023-06-16T07:14:03.796Z,101440.00
2023-06-16T07:16:32.096Z,101437.70
2023-06-16T07:19:00.455Z,101436.75
2023-06-16T07:21:29.242Z,101436.34
2023-06-16T07:23:57.551Z,101435.30
2023-06-16T07:26:26.308Z,101435.89
2023-06-16T07:28:54.565Z,101435.20
2023-06-16T07:31:22.935Z,101436.35
2023-06-16T07:33:51.091Z,101436.94
2023-06-16T07:36:19.285Z,101435.65
2023-06-16T07:38:47.459Z,101437.01
2023-06-16T07:41:15.948Z,101436.55
2023-06-16T07:43:44.279Z,101436.84
2023-06-16T07:46:12.832Z,101430.41
2023-06-16T07:48:41.494Z,101429.52
2023-06-16T07:51:09.613Z,101436.89
2023-06-16T07:53:37.642Z,101438.63
2023-06-16T07:56:05.909Z,101437.61
2023-06-16T07:58:33.969Z,101438.92
2023-06-16T08:01:02.776Z,101437.45
2023-06-16T08:03:32.047Z,101435.40
2023-06-16T08:06:00.585Z,101434.14
2023-06-16T08:08:28.869Z,101433.08
2023-06-16T08:10:59.754Z,101436.52
2023-06-16T08:13:27.796Z,101433.05
2023-06-16T08:15:56.047Z,101434.30
2023-06-16T08:18:25.597Z,101432.38
2023-06-16T08:20:53.722Z,101433.54
2023-06-16T08:23:21.947Z,101431.29
2023-06-16T08:25:51.795Z,101431.54
2023-06-16T08:28:19.914Z,101434.13
2023-06-16T08:30:48.205Z,101429.75
2023-06-16T08:33:17.071Z,101429.92
2023-06-16T08:35:45.370Z,101437.98
2023-06-16T08:38:13.429Z,101435.44
2023-06-16T08:40:41.493Z,101435.33
2023-06-16T08:43:12.692Z,101434.02
2023-06-16T08:45:41.843Z,101433.16
2023-06-16T08:48:12.111Z,101434.83
2023-06-16T08:50:41.889Z,101430.66
2023-06-16T08:53:12.605Z,101432.78
2023-06-16T08:55:44.708Z,101429.28
2023-06-16T08:58:14.668Z,101427.70
2023-06-16T09:00:45.319Z,101430.11
2023-06-16T09:03:14.972Z,101433.16
2023-06-16T09:05:43.209Z,101428.67
2023-06-16T09:08:12.820Z,101430.23
2023-06-16T09:10:41.244Z,101428.23
2023-06-16T09:13:09.866Z,101424.88
2023-06-16T09:15:38.199Z,101422.41
2023-06-16T09:18:08.490Z,101424.52
2023-06-16T09:20:40.821Z,101426.65
2023-06-16T09:23:10.124Z,101422.39
2023-06-16T09:25:39.949Z,101425.13
2023-06-16T09:28:10.685Z,101426.62
2023-06-16T09:30:43.406Z,101420.70
2023-06-16T09:33:12.966Z,101416.13
2023-06-16T09:35:42.954Z,101420.59
2023-06-16T09:38:11.649Z,101419.34
2023-06-16T09:40:40.355Z,101418.14
2023-06-16T09:43:11.547Z,101420.45
2023-06-16T09:45:40.122Z,101420.90
2023-06-16T09:48:11.419Z,101421.23
2023-06-16T09:50:41.896Z,101419.61
2023-06-16T09:53:10.541Z,101418.67
2023-06-16T09:55:40.790Z,101417.92
2023-06-16T09:58:09.163Z,101413.93
2023-06-16T10:00:37.408Z,101412.88
2023-06-16T10:03:09.281Z,101414.64
2023-06-16T10:05:41.569Z,101411.45
2023-06-16T10:08:11.689Z,101411.42
2023-06-16T10:10:44.117Z,101408.47
2023-06-16T10:13:12.960Z,101407.03
2023-06-16T10:15:44.083Z,101410.39
2023-06-16T10:18:16.618Z,101406.84
2023-06-16T10:20:47.288Z,101408.66
2023-06-16T10:23:16.617Z,101406.11
2023-06-16T10:25:45.857Z,101401.75
2023-06-16T10:28:15.765Z,101399.84
2023-06-16T10:30:45.429Z,101400.16
2023-06-16T10:33:19.225Z,101404.95
2023-06-16T10:35:57.597Z,101403.15
2023-06-16T10:38:36.401Z,101407.52
2023-06-16T10:41:07.598Z,101407.36
2023-06-16T10:43:35.738Z,101404.73
2023-06-16T10:46:15.096Z,101407.14
2023-06-16T10:49:12.359Z,101404.08
2023-06-16T10:51:51.741Z,101397.60
2023-06-16T10:54:38.315Z,101400.30
2023-06-16T10:57:14.011Z,101394.23
2023-06-16T11:00:02.896Z,101394.48
2023-06-16T11:02:34.446Z,101393.08
2023-06-16T11:05:08.757Z,101387.17
2023-06-16T11:08:07.307Z,101387.45
2023-06-16T11:11:15.234Z,101383.97
2023-06-16T11:13:43.610Z,101385.58
2023-06-16T11:16:11.977Z,101382.57
2023-06-16T11:18:40.303Z,101380.98
2023-06-16T11:21:12.535Z,101381.55
2023-06-16T11:23:45.600Z,101378.58
2023-06-16T11:26:19.896Z,101375.03
2023-06-16T11:28:49.769Z,101373.64
2023-06-16T11:31:20.705Z,101365.83
2023-06-16T11:33:49.063Z,101365.90
2023-06-16T11:36:22.730Z,101361.30
2023-06-16T11:38:52.799Z,101358.70
2023-06-16T11:41:23.459Z,101358.02
2023-06-16T11:43:52.913Z,101364.82
2023-06-16T11:46:24.439Z,101365.73
2023-06-16T11:48:53.509Z,101362.64
2023-06-16T11:51:23.622Z,101360.94
2023-06-16T11:53:52.379Z,101362.98
2023-06-16T11:56:24.680Z,101365.14
2023-06-16T11:58:54.406Z,101360.92
2023-06-16T12:01:23.588Z,101360.56
2023-06-16T12:04:04.705Z,101363.21
2023-06-16T12:06:37.242Z,101360.89
2023-06-16T12:09:05.468Z,101355.30
2023-06-16T12:11:35.748Z,101355.23
2023-06-16T12:14:03.910Z,101354.52
2023-06-16T12:16:32.164Z,101348.30
2023-06-16T12:19:01.154Z,101350.09
2023-06-16T12:21:30.336Z,101349.29
2023-06-16T12:24:00.293Z,101352.20
2023-06-16T12:26:31.832Z,101352.23
2023-06-16T12:29:03.388Z,101355.45
2023-06-16T12:31:33.215Z,101360.73
2023-06-16T12:34:01.446Z,101361.02
2023-06-16T12:36:29.937Z,101356.28
2023-06-16T12:39:00.489Z,101355.33
2023-06-16T12:41:30.399Z,101354.17
2023-06-16T12:43:58.629Z,101353.19
2023-06-16T12:46:26.859Z,101356.98
2023-06-16T12:48:55.022Z,101359.66
2023-06-16T12:51:23.663Z,101355.74
2023-06-16T12:53:51.841Z,101356.13
2023-06-16T12:56:20.113Z,101355.42
2023-06-16T12:58:48.256Z,101351.84
2023-06-16T13:01:16.382Z,101348.70
2023-06-16T13:03:48.456Z,101347.08
2023-06-16T13:06:20.468Z,101346.60
2023-06-16T13:08:49.652Z,101340.05
2023-06-16T13:11:19.274Z,101340.80
2023-06-16T13:13:47.509Z,101335.85
2023-06-16T13:16:18.356Z,101333.31
2023-06-16T13:18:46.990Z,101330.39
2023-06-16T13:21:16.511Z,101325.02
2023-06-16T13:23:44.857Z,101325.67
2023-06-16T13:26:15.082Z,101324.09
2023-06-16T13:28:43.394Z,101321.89
2023-06-16T13:31:13.583Z,101325.78
2023-06-16T13:33:43.506Z,101322.23
2023-06-16T13:36:19.655Z,101316.13
2023-06-16T13:38:48.762Z,101319.02
2023-06-16T13:41:17.018Z,101321.21
2023-06-16T13:43:48.166Z,101320.50
2023-06-16T13:46:17.793Z,101317.81
2023-06-16T13:48:46.681Z,101316.56
2023-06-16T13:51:15.254Z,101317.93
2023-06-16T13:53:46.890Z,101315.27
2023-06-16T13:56:15.008Z,101314.30
2023-06-16T13:58:43.131Z,101315.13
2023-06-16T14:01:11.482Z,101312.98
2023-06-16T14:03:39.716Z,101308.69
2023-06-16T14:06:08.159Z,101306.77
2023-06-16T14:08:36.586Z,101311.38
2023-06-16T14:11:04.667Z,101308.53
2023-06-16T14:13:32.722Z,101307.20
2023-06-16T14:16:00.857Z,101304.35
2023-06-16T14:18:28.874Z,101307.60
2023-06-16T14:20:57.017Z,101301.13
2023-06-16T14:23:25.178Z,101294.55
2023-06-16T14:25:53.386Z,101299.84
2023-06-16T14:28:21.452Z,101299.39
2023-06-16T14:30:49.614Z,101295.39
2023-06-16T14:33:17.889Z,101294.94
2023-06-16T14:35:46.133Z,101294.26
2023-06-16T14:38:15.134Z,101296.69
2023-06-16T14:40:43.435Z,101292.28
2023-06-16T14:43:11.578Z,101289.61
2023-06-16T14:45:39.779Z,101283.95
2023-06-16T14:48:07.981Z,101280.59
2023-06-16T14:50:36.262Z,101279.52
2023-06-16T14:53:04.482Z,101273.60
2023-06-16T14:55:32.754Z,101274.52
2023-06-16T14:58:01.177Z,101274.67
2023-06-16T15:00:29.309Z,101279.15
2023-06-16T15:02:57.595Z,101282.35
2023-06-16T15:05:25.909Z,101277.78
2023-06-16T15:07:54.041Z,101272.51
2023-06-16T15:10:22.727Z,101271.09
2023-06-16T15:12:51.330Z,101274.04
2023-06-16T15:15:19.573Z,101277.58
2023-06-16T15:17:47.674Z,101276.74
2023-06-16T15:20:15.967Z,101274.13
2023-06-16T15:22:44.094Z,101273.80
2023-06-16T15:25:12.885Z,101276.70
2023-06-16T15:27:41.061Z,101278.30
2023-06-16T15:30:09.712Z,101277.23
2023-06-16T15:32:39.072Z,101277.02
2023-06-16T15:35:08.047Z,101275.76
2023-06-16T15:37:36.194Z,101264.23
2023-06-16T15:40:05.001Z,101257.23
2023-06-16T15:42:33.152Z,101258.63
2023-06-16T15:45:01.582Z,101262.86
2023-06-16T15:47:29.705Z,101269.98
2023-06-16T15:49:57.940Z,101274.83
2023-06-16T15:52:26.151Z,101272.37
2023-06-16T15:54:54.377Z,101274.59
2023-06-16T15:57:23.108Z,101270.58
2023-06-16T15:59:51.413Z,101266.10
2023-06-16T16:02:19.680Z,101262.09
2023-06-16T16:04:47.933Z,101252.92
2023-06-16T16:07:16.415Z,101247.66
2023-06-16T16:09:44.692Z,101247.19
2023-06-16T16:12:13.317Z,101250.90
2023-06-16T16:14:41.467Z,101250.73
2023-06-16T16:17:09.695Z,101248.89
2023-06-16T16:19:37.999Z,101243.10
2023-06-16T16:22:07.602Z,101241.94
2023-06-16T16:24:35.910Z,101243.94
2023-06-16T16:27:05.077Z,101240.83
2023-06-16T16:29:34.475Z,101236.45
2023-06-16T16:32:03.260Z,101239.18
2023-06-16T16:34:31.981Z,101240.77
2023-06-16T16:37:03.433Z,101240.11
2023-06-16T16:39:32.605Z,101240.64
2023-06-16T16:42:01.080Z,101234.87
2023-06-16T16:44:31.297Z,101232.10
2023-06-16T16:47:01.824Z,101232.48
2023-06-16T16:49:30.510Z,101233.30
2023-06-16T16:51:58.595Z,101237.80
2023-06-16T16:54:26.971Z,101238.30
2023-06-16T16:56:55.132Z,101243.48
2023-06-16T16:59:27.455Z,101245.52
2023-06-16T17:01:55.651Z,101243.56
2023-06-16T17:04:25.254Z,101246.34
2023-06-16T17:06:54.557Z,101252.10
2023-06-16T17:09:23.194Z,101252.76
2023-06-16T17:11:51.337Z,101248.29
2023-06-16T17:14:19.510Z,101247.36
2023-06-16T17:16:47.582Z,101247.06
2023-06-16T17:19:15.757Z,101250.48
2023-06-16T17:21:43.901Z,101251.25
2023-06-16T17:24:12.109Z,101250.77
2023-06-16T17:26:40.286Z,101251.44
2023-06-16T17:29:08.654Z,101243.05
2023-06-16T17:31:36.765Z,101244.63
2023-06-16T17:34:04.900Z,101244.42
2023-06-16T17:36:33.060Z,101244.27
2023-06-16T17:39:01.240Z,101241.13
2023-06-16T17:41:29.615Z,101244.21
2023-06-16T17:44:04.869Z,101245.72
2023-06-16T17:46:36.833Z,101249.20
2023-06-16T17:49:08.355Z,101257.06
2023-06-16T17:51:37.803Z,101255.16
2023-06-16T17:54:06.594Z,101255.89
2023-06-16T17:56:34.834Z,101257.30
2023-06-16T17:59:03.004Z,101257.01
2023-06-16T18:01:31.585Z,101257.55
2023-06-16T18:04:00.096Z,101263.21
2023-06-16T18:06:28.341Z,101264.44
2023-06-16T18:08:57.639Z,101265.32
2023-06-16T18:11:26.122Z,101266.63
2023-06-16T18:13:54.355Z,101264.41
2023-06-16T18:16:23.119Z,101267.11
2023-06-16T18:18:51.763Z,101267.04
2023-06-16T18:21:19.939Z,101270.93
2023-06-16T18:23:48.265Z,101271.52
2023-06-16T18:26:17.820Z,101269.98
2023-06-16T18:28:46.012Z,101270.19
2023-06-16T18:31:14.444Z,101265.53
2023-06-16T18:33:42.546Z,101265.05
2023-06-16T18:36:11.542Z,101263.20
2023-06-16T18:38:46.316Z,101266.90
2023-06-16T18:41:14.545Z,101271.62
2023-06-16T18:43:42.620Z,101268.84
2023-06-16T18:46:11.356Z,101268.69
2023-06-16T18:48:39.545Z,101272.65
2023-06-16T18:51:08.424Z,101277.42
2023-06-16T18:53:36.743Z,101273.20
2023-06-16T18:56:05.123Z,101276.38
2023-06-16T18:58:33.337Z,101282.60
2023-06-16T19:01:01.465Z,101286.54
2023-06-16T19:03:29.733Z,101288.66
2023-06-16T19:05:58.123Z,101285.48
2023-06-16T19:08:26.186Z,101291.47
2023-06-16T19:10:54.158Z,101291.20
2023-06-16T19:13:22.340Z,101290.14
2023-06-16T19:15:50.705Z,101291.85
2023-06-16T19:18:18.949Z,101290.43
2023-06-16T19:20:47.056Z,101286.38
2023-06-16T19:23:17.494Z,101286.48
2023-06-16T19:25:45.666Z,101287.02
2023-06-16T19:28:16.525Z,101285.70
2023-06-16T19:30:44.764Z,101288.69
2023-06-16T19:33:15.409Z,101282.33
2023-06-16T19:35:43.777Z,101282.08
2023-06-16T19:38:11.955Z,101283.10
2023-06-16T19:40:40.114Z,101285.86
2023-06-16T19:43:08.288Z,101280.43
2023-06-16T19:45:36.663Z,101279.05
2023-06-16T19:48:05.960Z,101278.97
2023-06-16T19:50:34.161Z,101286.29
2023-06-16T19:53:02.410Z,101290.95
2023-06-16T19:55:37.499Z,101292.77
2023-06-16T19:58:18.311Z,101295.06
2023-06-16T20:00:46.929Z,101296.70
2023-06-16T20:03:15.707Z,101291.38
2023-06-16T20:05:43.926Z,101289.50
2023-06-16T20:08:12.033Z,101291.34
2023-06-16T20:10:41.334Z,101292.49
2023-06-16T20:13:09.805Z,101286.98
2023-06-16T20:15:38.407Z,101284.09
2023-06-16T20:18:07.240Z,101283.09
2023-06-16T20:20:35.657Z,101280.89
2023-06-16T20:23:04.684Z,101283.99
2023-06-16T20:25:32.920Z,101281.81
2023-06-16T20:28:01.204Z,101282.08
2023-06-16T20:30:29.488Z,101282.06
2023-06-16T20:32:57.952Z,101280.02
2023-06-16T20:35:27.258Z,101279.83
2023-06-16T20:37:58.694Z,101283.99
2023-06-16T20:40:28.543Z,101280.89
2023-06-16T20:42:57.702Z,101279.99
2023-06-16T20:45:26.259Z,101278.56
2023-06-16T20:47:55.015Z,101282.69
2023-06-16T20:50:28.597Z,101278.88
2023-06-16T20:52:57.994Z,101276.85
2023-06-16T20:57:57.382Z,101272.38
2023-06-16T21:00:28.784Z,101268.66
2023-06-16T21:02:57.221Z,101263.89
2023-06-16T21:05:30.377Z,101263.02
2023-06-16T21:07:59.426Z,101259.85
2023-06-16T21:10:27.903Z,101268.06
2023-06-16T21:12:56.400Z,101267.40
2023-06-16T21:15:24.456Z,101264.39
2023-06-16T21:17:52.658Z,101261.23
2023-06-16T21:20:21.819Z,101258.36
2023-06-16T21:22:52.201Z,101259.94
2023-06-16T21:25:20.606Z,101262.08
2023-06-16T21:27:48.782Z,101259.80
2023-06-16T21:30:17.335Z,101259.12
2023-06-16T21:32:45.656Z,101262.70
2023-06-16T21:35:13.815Z,101262.90
2023-06-16T21:37:41.993Z,101262.80
2023-06-16T21:40:12.031Z,101262.67
2023-06-16T21:42:42.343Z,101259.86
2023-06-16T21:45:13.784Z,101259.80
2023-06-16T21:47:42.503Z,101260.73
2023-06-16T21:50:10.755Z,101262.67
2023-06-16T21:52:39.037Z,101265.51
2023-06-16T21:55:08.441Z,101259.80
2023-06-16T21:57:37.122Z,101257.79
2023-06-16T22:00:10.174Z,101260.45
2023-06-16T22:02:39.255Z,101259.38
2023-06-16T22:05:08.732Z,101258.45
2023-06-16T22:07:40.456Z,101255.96
2023-06-16T22:10:10.126Z,101254.37
2023-06-16T22:12:38.634Z,101254.00
2023-06-16T22:15:07.373Z,101256.86
2023-06-16T22:17:36.801Z,101257.61
2023-06-16T22:20:07.297Z,101252.67
2023-06-16T22:22:35.725Z,101251.95
2023-06-16T22:25:04.416Z,101256.52
2023-06-16T22:27:33.421Z,101250.85
2023-06-16T22:30:01.629Z,101252.77
2023-06-16T22:32:30.191Z,101252.05
2023-06-16T22:34:58.382Z,101251.84
2023-06-16T22:37:26.504Z,101247.41
2023-06-16T22:39:54.776Z,101246.95
2023-06-16T22:42:24.607Z,101241.36
2023-06-16T22:44:52.806Z,101235.01
2023-06-16T22:47:21.139Z,101235.87
2023-06-16T22:49:49.202Z,101228.77
2023-06-16T22:52:17.643Z,101228.40
2023-06-16T22:54:45.958Z,101227.80
2023-06-16T22:57:14.150Z,101223.15
2023-06-16T22:59:42.148Z,101218.39
2023-06-16T23:02:10.276Z,101219.44
2023-06-16T23:04:38.454Z,101216.23
2023-06-16T23:07:06.624Z,101215.34
2023-06-16T23:09:34.899Z,101214.48
2023-06-16T23:12:03.077Z,101215.41
2023-06-16T23:14:31.634Z,101210.19
2023-06-16T23:16:59.830Z,101210.79
2023-06-16T23:19:27.963Z,101211.67
2023-06-16T23:21:56.582Z,101210.29
2023-06-16T23:24:24.684Z,101208.00
2023-06-16T23:26:54.928Z,101208.20
2023-06-16T23:29:23.475Z,101205.19
2023-06-16T23:31:51.472Z,101202.70
2023-06-16T23:34:20.548Z,101206.58
2023-06-16T23:36:48.603Z,101205.02
2023-06-16T23:39:16.872Z,101206.05
2023-06-16T23:41:45.147Z,101208.36
2023-06-16T23:44:13.414Z,101205.52
2023-06-16T23:46:41.505Z,101205.55
2023-06-16T23:49:09.555Z,101204.34
2023-06-16T23:51:37.727Z,101203.48
2023-06-16T23:54:06.188Z,101200.51
2023-06-16T23:56:34.276Z,101198.57
2023-06-16T23:59:02.466Z,101198.91
